Reno, Illinois
Current Conditions -  °F | °C
As of 10:35 AM on Friday 31 Oct 2014 (Local Time) from K3LF Reporting Station
Scattered Clouds Scattered Clouds  
Wind Chill: 29°   Ceiling: Unl
Heat Index: 39°   Visibility: 10mi
Dew Point: 24°   Wind: 21mph
Humidity: 55%   Direction: 350°N
Pressure: 30.24"   Gusts: 37mph
Location:  38.9523°N, 89.5609°W
Report Text: K3LF 311535Z AUTO 35018G32KT 10SM SCT038 04/M04 A3024 RMK AO2 T00371045
Loading
Personal Weather Stations






























Interactive Weather Map
Tropical Storm Tracking
New forecast layout! Learn more

10-Day Weather Forecast

Advertisements
Track Severe Weather on mobile